sensor_id;sensor_type;location;lat;lon;timestamp;temperature;humidity
15184;DHT22;7693;49.266;7.104;2024-02-26T00:01:40;8.40;99.90
15184;DHT22;7693;49.266;7.104;2024-02-26T00:04:06;8.40;99.90
15184;DHT22;7693;49.266;7.104;2024-02-26T00:06:31;8.30;99.90
15184;DHT22;7693;49.266;7.104;2024-02-26T00:08:58;8.30;99.90
15184;DHT22;7693;49.266;7.104;2024-02-26T00:11:23;8.20;99.90
15184;DHT22;7693;49.266;7.104;2024-02-26T00:13:49;8.20;99.90
15184;DHT22;7693;49.266;7.104;2024-02-26T00:16:15;8.10;99.90
15184;DHT22;7693;49.266;7.104;2024-02-26T00:18:40;8.10;99.90
15184;DHT22;7693;49.266;7.104;2024-02-26T00:21:06;8.10;99.90
15184;DHT22;7693;49.266;7.104;2024-02-26T00:23:32;8.00;99.90
15184;DHT22;7693;49.266;7.104;2024-02-26T00:25:57;8.00;99.90
15184;DHT22;7693;49.266;7.104;2024-02-26T00:28:23;8.00;99.90
15184;DHT22;7693;49.266;7.104;2024-02-26T00:30:50;8.00;99.90
15184;DHT22;7693;49.266;7.104;2024-02-26T00:33:21;8.00;99.90
15184;DHT22;7693;49.266;7.104;2024-02-26T00:35:47;8.00;99.90
15184;DHT22;7693;49.266;7.104;2024-02-26T00:38:13;7.90;99.90
15184;DHT22;7693;49.266;7.104;2024-02-26T00:40:39;7.90;99.90
15184;DHT22;7693;49.266;7.104;2024-02-26T00:43:09;7.90;99.90
15184;DHT22;7693;49.266;7.104;2024-02-26T00:45:34;7.90;99.90
15184;DHT22;7693;49.266;7.104;2024-02-26T00:48:00;7.90;99.90
15184;DHT22;7693;49.266;7.104;2024-02-26T00:50:30;7.90;99.90
15184;DHT22;7693;49.266;7.104;2024-02-26T00:52:55;7.80;99.90
15184;DHT22;7693;49.266;7.104;2024-02-26T00:55:21;7.80;99.90
15184;DHT22;7693;49.266;7.104;2024-02-26T00:57:47;7.80;99.90
15184;DHT22;7693;49.266;7.104;2024-02-26T01:00:13;7.80;99.90
15184;DHT22;7693;49.266;7.104;2024-02-26T01:02:39;7.80;99.90
15184;DHT22;7693;49.266;7.104;2024-02-26T01:05:07;7.70;99.90
15184;DHT22;7693;49.266;7.104;2024-02-26T01:07:34;7.70;99.90
15184;DHT22;7693;49.266;7.104;2024-02-26T01:10:04;7.70;99.90
15184;DHT22;7693;49.266;7.104;2024-02-26T01:12:32;7.70;99.90
15184;DHT22;7693;49.266;7.104;2024-02-26T01:14:57;7.70;99.90
15184;DHT22;7693;49.266;7.104;2024-02-26T01:17:23;7.70;99.90
15184;DHT22;7693;49.266;7.104;2024-02-26T01:19:49;7.60;99.90
15184;DHT22;7693;49.266;7.104;2024-02-26T01:22:15;7.60;99.90
15184;DHT22;7693;49.266;7.104;2024-02-26T01:24:40;7.60;99.90
15184;DHT22;7693;49.266;7.104;2024-02-26T01:27:06;7.60;99.90
15184;DHT22;7693;49.266;7.104;2024-02-26T01:29:33;7.60;99.90
15184;DHT22;7693;49.266;7.104;2024-02-26T01:31:59;7.60;99.90
15184;DHT22;7693;49.266;7.104;2024-02-26T01:34:24;7.50;99.90
15184;DHT22;7693;49.266;7.104;2024-02-26T01:36:50;7.50;99.90
15184;DHT22;7693;49.266;7.104;2024-02-26T01:39:15;7.50;99.90
15184;DHT22;7693;49.266;7.104;2024-02-26T01:41:41;7.50;99.90
15184;DHT22;7693;49.266;7.104;2024-02-26T01:44:07;7.50;99.90
15184;DHT22;7693;49.266;7.104;2024-02-26T01:46:34;7.40;99.90
15184;DHT22;7693;49.266;7.104;2024-02-26T01:49:01;7.40;99.90
15184;DHT22;7693;49.266;7.104;2024-02-26T01:51:27;7.30;99.90
15184;DHT22;7693;49.266;7.104;2024-02-26T01:53:54;7.30;99.90
15184;DHT22;7693;49.266;7.104;2024-02-26T01:56:21;7.30;99.90
15184;DHT22;7693;49.266;7.104;2024-02-26T01:58:48;7.20;99.90
15184;DHT22;7693;49.266;7.104;2024-02-26T02:01:15;7.20;99.90
15184;DHT22;7693;49.266;7.104;2024-02-26T02:03:44;7.10;99.90
15184;DHT22;7693;49.266;7.104;2024-02-26T02:06:11;7.10;99.90
15184;DHT22;7693;49.266;7.104;2024-02-26T02:08:37;7.10;99.90
15184;DHT22;7693;49.266;7.104;2024-02-26T02:11:04;7.10;99.90
15184;DHT22;7693;49.266;7.104;2024-02-26T02:13:30;7.10;99.90
15184;DHT22;7693;49.266;7.104;2024-02-26T02:15:55;7.10;99.90
15184;DHT22;7693;49.266;7.104;2024-02-26T02:18:21;7.10;99.90
15184;DHT22;7693;49.266;7.104;2024-02-26T02:20:46;7.10;99.90
15184;DHT22;7693;49.266;7.104;2024-02-26T02:23:12;7.00;99.90
15184;DHT22;7693;49.266;7.104;2024-02-26T02:25:39;7.00;99.90
15184;DHT22;7693;49.266;7.104;2024-02-26T02:28:05;7.00;99.90
15184;DHT22;7693;49.266;7.104;2024-02-26T02:30:31;7.00;99.90
15184;DHT22;7693;49.266;7.104;2024-02-26T02:32:58;7.00;99.90
15184;DHT22;7693;49.266;7.104;2024-02-26T02:35:24;7.00;99.90
15184;DHT22;7693;49.266;7.104;2024-02-26T02:37:54;7.00;99.90
15184;DHT22;7693;49.266;7.104;2024-02-26T02:40:20;6.90;99.90
15184;DHT22;7693;49.266;7.104;2024-02-26T02:42:46;7.00;99.90
15184;DHT22;7693;49.266;7.104;2024-02-26T02:45:11;7.00;99.90
15184;DHT22;7693;49.266;7.104;2024-02-26T02:47:37;7.00;99.90
15184;DHT22;7693;49.266;7.104;2024-02-26T02:50:05;6.90;99.90
15184;DHT22;7693;49.266;7.104;2024-02-26T02:52:31;6.90;99.90
15184;DHT22;7693;49.266;7.104;2024-02-26T02:54:57;6.90;99.90
15184;DHT22;7693;49.266;7.104;2024-02-26T02:57:23;6.90;99.90
15184;DHT22;7693;49.266;7.104;2024-02-26T02:59:49;6.90;99.90
15184;DHT22;7693;49.266;7.104;2024-02-26T03:02:14;6.90;99.90
15184;DHT22;7693;49.266;7.104;2024-02-26T03:04:40;7.00;99.90
15184;DHT22;7693;49.266;7.104;2024-02-26T03:07:06;7.00;99.90
15184;DHT22;7693;49.266;7.104;2024-02-26T03:09:31;7.00;99.90
15184;DHT22;7693;49.266;7.104;2024-02-26T03:11:57;7.00;99.90
15184;DHT22;7693;49.266;7.104;2024-02-26T03:14:23;7.00;99.90
15184;DHT22;7693;49.266;7.104;2024-02-26T03:16:49;7.00;99.90
15184;DHT22;7693;49.266;7.104;2024-02-26T03:19:15;7.00;99.90
15184;DHT22;7693;49.266;7.104;2024-02-26T03:21:44;7.00;99.90
15184;DHT22;7693;49.266;7.104;2024-02-26T03:24:09;7.10;99.90
15184;DHT22;7693;49.266;7.104;2024-02-26T03:26:36;7.00;99.90
15184;DHT22;7693;49.266;7.104;2024-02-26T03:29:02;7.00;99.90
15184;DHT22;7693;49.266;7.104;2024-02-26T03:31:28;7.00;99.90
15184;DHT22;7693;49.266;7.104;2024-02-26T03:33:54;7.00;99.90
15184;DHT22;7693;49.266;7.104;2024-02-26T03:36:19;7.00;99.90
15184;DHT22;7693;49.266;7.104;2024-02-26T03:38:47;7.00;99.90
15184;DHT22;7693;49.266;7.104;2024-02-26T03:41:13;7.00;99.90
15184;DHT22;7693;49.266;7.104;2024-02-26T03:43:39;7.00;99.90
15184;DHT22;7693;49.266;7.104;2024-02-26T03:46:07;7.00;99.90
15184;DHT22;7693;49.266;7.104;2024-02-26T03:48:34;6.90;99.90
15184;DHT22;7693;49.266;7.104;2024-02-26T03:51:00;6.90;99.90
15184;DHT22;7693;49.266;7.104;2024-02-26T03:53:26;7.00;99.90
15184;DHT22;7693;49.266;7.104;2024-02-26T03:55:52;6.90;99.90
15184;DHT22;7693;49.266;7.104;2024-02-26T03:58:18;7.00;99.90
15184;DHT22;7693;49.266;7.104;2024-02-26T04:00:43;7.00;99.90
15184;DHT22;7693;49.266;7.104;2024-02-26T04:03:10;7.00;99.90
15184;DHT22;7693;49.266;7.104;2024-02-26T04:05:35;7.00;99.90
15184;DHT22;7693;49.266;7.104;2024-02-26T04:08:01;7.00;99.90
15184;DHT22;7693;49.266;7.104;2024-02-26T04:10:27;7.00;99.90
15184;DHT22;7693;49.266;7.104;2024-02-26T04:12:53;7.00;99.90
15184;DHT22;7693;49.266;7.104;2024-02-26T04:15:19;7.00;99.90
15184;DHT22;7693;49.266;7.104;2024-02-26T04:17:44;7.00;99.90
15184;DHT22;7693;49.266;7.104;2024-02-26T04:20:14;7.00;99.90
15184;DHT22;7693;49.266;7.104;2024-02-26T04:22:41;7.00;99.90
15184;DHT22;7693;49.266;7.104;2024-02-26T04:25:07;7.00;99.90
15184;DHT22;7693;49.266;7.104;2024-02-26T04:27:32;7.00;99.90
15184;DHT22;7693;49.266;7.104;2024-02-26T04:29:58;7.00;99.90
15184;DHT22;7693;49.266;7.104;2024-02-26T04:32:24;7.00;99.90
15184;DHT22;7693;49.266;7.104;2024-02-26T04:34:49;6.90;99.90
15184;DHT22;7693;49.266;7.104;2024-02-26T04:37:15;6.90;99.90
15184;DHT22;7693;49.266;7.104;2024-02-26T04:39:40;7.00;99.90
15184;DHT22;7693;49.266;7.104;2024-02-26T04:42:06;7.00;99.90
15184;DHT22;7693;49.266;7.104;2024-02-26T04:44:32;7.00;99.90
15184;DHT22;7693;49.266;7.104;2024-02-26T04:46:58;7.00;99.90
15184;DHT22;7693;49.266;7.104;2024-02-26T04:49:23;7.00;99.90
15184;DHT22;7693;49.266;7.104;2024-02-26T04:51:49;7.00;99.90
15184;DHT22;7693;49.266;7.104;2024-02-26T04:54:15;7.00;99.90
15184;DHT22;7693;49.266;7.104;2024-02-26T04:56:41;7.00;99.90
15184;DHT22;7693;49.266;7.104;2024-02-26T04:59:06;7.00;99.90
15184;DHT22;7693;49.266;7.104;2024-02-26T05:01:32;7.00;99.90
15184;DHT22;7693;49.266;7.104;2024-02-26T05:03:57;7.00;99.90
15184;DHT22;7693;49.266;7.104;2024-02-26T05:06:23;7.00;99.90
15184;DHT22;7693;49.266;7.104;2024-02-26T05:08:49;7.00;99.90
15184;DHT22;7693;49.266;7.104;2024-02-26T05:11:14;7.00;99.90
15184;DHT22;7693;49.266;7.104;2024-02-26T05:13:41;7.00;99.90
15184;DHT22;7693;49.266;7.104;2024-02-26T05:16:07;7.00;99.90
15184;DHT22;7693;49.266;7.104;2024-02-26T05:18:32;7.00;99.90
15184;DHT22;7693;49.266;7.104;2024-02-26T05:20:58;7.00;99.90
15184;DHT22;7693;49.266;7.104;2024-02-26T05:23:24;7.00;99.90
15184;DHT22;7693;49.266;7.104;2024-02-26T05:25:50;7.00;99.90
15184;DHT22;7693;49.266;7.104;2024-02-26T05:28:15;6.90;99.90
15184;DHT22;7693;49.266;7.104;2024-02-26T05:30:42;6.90;99.90
15184;DHT22;7693;49.266;7.104;2024-02-26T05:33:08;6.90;99.90
15184;DHT22;7693;49.266;7.104;2024-02-26T05:35:33;6.90;99.90
15184;DHT22;7693;49.266;7.104;2024-02-26T05:37:59;6.90;99.90
15184;DHT22;7693;49.266;7.104;2024-02-26T05:40:25;6.90;99.90
15184;DHT22;7693;49.266;7.104;2024-02-26T05:42:50;6.90;99.90
15184;DHT22;7693;49.266;7.104;2024-02-26T05:45:17;6.90;99.90
15184;DHT22;7693;49.266;7.104;2024-02-26T05:47:43;6.90;99.90
15184;DHT22;7693;49.266;7.104;2024-02-26T05:50:09;6.90;99.90
15184;DHT22;7693;49.266;7.104;2024-02-26T05:52:37;6.90;99.90
15184;DHT22;7693;49.266;7.104;2024-02-26T05:55:04;6.90;99.90
15184;DHT22;7693;49.266;7.104;2024-02-26T05:57:31;6.90;99.90
15184;DHT22;7693;49.266;7.104;2024-02-26T05:59:56;6.90;99.90
15184;DHT22;7693;49.266;7.104;2024-02-26T06:02:22;6.90;99.90
15184;DHT22;7693;49.266;7.104;2024-02-26T06:04:48;6.90;99.90
15184;DHT22;7693;49.266;7.104;2024-02-26T06:07:13;6.90;99.90
15184;DHT22;7693;49.266;7.104;2024-02-26T06:09:39;6.80;99.90
15184;DHT22;7693;49.266;7.104;2024-02-26T06:12:05;6.80;99.90
15184;DHT22;7693;49.266;7.104;2024-02-26T06:14:31;6.80;99.90
15184;DHT22;7693;49.266;7.104;2024-02-26T06:16:56;6.80;99.90
15184;DHT22;7693;49.266;7.104;2024-02-26T06:19:22;6.80;99.90
15184;DHT22;7693;49.266;7.104;2024-02-26T06:21:48;6.90;99.90
15184;DHT22;7693;49.266;7.104;2024-02-26T06:24:13;6.80;99.90
15184;DHT22;7693;49.266;7.104;2024-02-26T06:26:39;6.90;99.90
15184;DHT22;7693;49.266;7.104;2024-02-26T06:29:04;6.80;99.90
15184;DHT22;7693;49.266;7.104;2024-02-26T06:31:30;6.80;99.90
15184;DHT22;7693;49.266;7.104;2024-02-26T06:33:56;6.80;99.90
15184;DHT22;7693;49.266;7.104;2024-02-26T06:36:22;6.80;99.90
15184;DHT22;7693;49.266;7.104;2024-02-26T06:38:47;6.80;99.90
15184;DHT22;7693;49.266;7.104;2024-02-26T06:41:14;6.90;99.90
15184;DHT22;7693;49.266;7.104;2024-02-26T06:43:40;6.90;99.90
15184;DHT22;7693;49.266;7.104;2024-02-26T06:46:06;6.90;99.90
15184;DHT22;7693;49.266;7.104;2024-02-26T06:48:32;6.90;99.90
15184;DHT22;7693;49.266;7.104;2024-02-26T06:50:58;6.90;99.90
15184;DHT22;7693;49.266;7.104;2024-02-26T06:53:23;6.90;99.90
15184;DHT22;7693;49.266;7.104;2024-02-26T06:55:49;7.00;99.90
15184;DHT22;7693;49.266;7.104;2024-02-26T06:58:15;7.00;99.90
15184;DHT22;7693;49.266;7.104;2024-02-26T07:00:41;7.00;99.90
15184;DHT22;7693;49.266;7.104;2024-02-26T07:03:07;7.00;99.90
15184;DHT22;7693;49.266;7.104;2024-02-26T07:05:32;7.00;99.90
15184;DHT22;7693;49.266;7.104;2024-02-26T07:07:58;7.00;99.90
15184;DHT22;7693;49.266;7.104;2024-02-26T07:10:23;7.00;99.90
15184;DHT22;7693;49.266;7.104;2024-02-26T07:12:49;7.00;99.90
15184;DHT22;7693;49.266;7.104;2024-02-26T07:15:15;7.00;99.90
15184;DHT22;7693;49.266;7.104;2024-02-26T07:17:40;7.00;99.90
15184;DHT22;7693;49.266;7.104;2024-02-26T07:20:13;7.00;99.90
15184;DHT22;7693;49.266;7.104;2024-02-26T07:22:39;7.00;99.90
15184;DHT22;7693;49.266;7.104;2024-02-26T07:25:05;7.10;99.90
15184;DHT22;7693;49.266;7.104;2024-02-26T07:27:33;7.10;99.90
15184;DHT22;7693;49.266;7.104;2024-02-26T07:29:59;7.10;99.90
15184;DHT22;7693;49.266;7.104;2024-02-26T07:32:24;7.10;99.90
15184;DHT22;7693;49.266;7.104;2024-02-26T07:34:50;7.20;99.90
15184;DHT22;7693;49.266;7.104;2024-02-26T07:37:16;7.20;99.90
15184;DHT22;7693;49.266;7.104;2024-02-26T07:39:41;7.20;99.90
15184;DHT22;7693;49.266;7.104;2024-02-26T07:42:07;7.30;99.90
15184;DHT22;7693;49.266;7.104;2024-02-26T07:44:33;7.30;99.90
15184;DHT22;7693;49.266;7.104;2024-02-26T07:46:59;7.30;99.90
15184;DHT22;7693;49.266;7.104;2024-02-26T07:49:24;7.30;99.90
15184;DHT22;7693;49.266;7.104;2024-02-26T07:51:50;7.40;99.90
15184;DHT22;7693;49.266;7.104;2024-02-26T07:54:15;7.40;99.90
15184;DHT22;7693;49.266;7.104;2024-02-26T07:56:41;7.40;99.90
15184;DHT22;7693;49.266;7.104;2024-02-26T07:59:07;7.40;99.90
15184;DHT22;7693;49.266;7.104;2024-02-26T08:01:33;7.50;99.90
15184;DHT22;7693;49.266;7.104;2024-02-26T08:03:59;7.50;99.90
15184;DHT22;7693;49.266;7.104;2024-02-26T08:06:25;7.60;99.90
15184;DHT22;7693;49.266;7.104;2024-02-26T08:08:51;7.60;99.90
15184;DHT22;7693;49.266;7.104;2024-02-26T08:11:17;7.70;99.90
15184;DHT22;7693;49.266;7.104;2024-02-26T08:13:42;7.70;99.90
15184;DHT22;7693;49.266;7.104;2024-02-26T08:16:08;7.70;99.90
15184;DHT22;7693;49.266;7.104;2024-02-26T08:18:34;7.70;99.90
15184;DHT22;7693;49.266;7.104;2024-02-26T08:21:00;7.80;99.90
15184;DHT22;7693;49.266;7.104;2024-02-26T08:23:26;7.90;99.90
15184;DHT22;7693;49.266;7.104;2024-02-26T08:25:51;8.00;99.90
15184;DHT22;7693;49.266;7.104;2024-02-26T08:28:17;8.00;99.90
15184;DHT22;7693;49.266;7.104;2024-02-26T08:30:43;8.10;99.90
15184;DHT22;7693;49.266;7.104;2024-02-26T08:33:09;8.10;99.90
15184;DHT22;7693;49.266;7.104;2024-02-26T08:35:36;8.20;99.90
15184;DHT22;7693;49.266;7.104;2024-02-26T08:38:01;8.30;99.90
15184;DHT22;7693;49.266;7.104;2024-02-26T08:40:28;8.40;99.90
15184;DHT22;7693;49.266;7.104;2024-02-26T08:42:54;8.40;99.90
15184;DHT22;7693;49.266;7.104;2024-02-26T08:45:20;8.50;99.90
15184;DHT22;7693;49.266;7.104;2024-02-26T08:47:46;8.50;99.90
15184;DHT22;7693;49.266;7.104;2024-02-26T08:50:12;8.50;99.90
15184;DHT22;7693;49.266;7.104;2024-02-26T08:52:38;8.50;99.90
15184;DHT22;7693;49.266;7.104;2024-02-26T08:55:04;8.50;99.90
15184;DHT22;7693;49.266;7.104;2024-02-26T08:57:31;8.60;99.90
15184;DHT22;7693;49.266;7.104;2024-02-26T08:59:59;8.60;99.90
15184;DHT22;7693;49.266;7.104;2024-02-26T09:02:26;8.60;99.90
15184;DHT22;7693;49.266;7.104;2024-02-26T09:04:51;8.60;99.90
15184;DHT22;7693;49.266;7.104;2024-02-26T09:07:19;8.60;99.90
15184;DHT22;7693;49.266;7.104;2024-02-26T09:09:45;8.60;99.90
15184;DHT22;7693;49.266;7.104;2024-02-26T09:12:11;8.60;99.90
15184;DHT22;7693;49.266;7.104;2024-02-26T09:14:36;8.70;99.90
15184;DHT22;7693;49.266;7.104;2024-02-26T09:17:02;8.70;99.90
15184;DHT22;7693;49.266;7.104;2024-02-26T09:19:28;8.70;99.90
15184;DHT22;7693;49.266;7.104;2024-02-26T09:21:54;8.80;99.90
15184;DHT22;7693;49.266;7.104;2024-02-26T09:24:23;8.90;99.90
15184;DHT22;7693;49.266;7.104;2024-02-26T09:26:49;9.00;99.90
15184;DHT22;7693;49.266;7.104;2024-02-26T09:29:14;9.10;99.90
15184;DHT22;7693;49.266;7.104;2024-02-26T09:31:40;9.20;99.90
15184;DHT22;7693;49.266;7.104;2024-02-26T09:34:07;9.30;99.90
15184;DHT22;7693;49.266;7.104;2024-02-26T09:36:36;9.30;99.90
15184;DHT22;7693;49.266;7.104;2024-02-26T09:39:01;9.40;99.90
15184;DHT22;7693;49.266;7.104;2024-02-26T09:41:29;9.40;99.90
15184;DHT22;7693;49.266;7.104;2024-02-26T09:43:57;9.40;99.90
15184;DHT22;7693;49.266;7.104;2024-02-26T09:46:26;9.40;99.90
15184;DHT22;7693;49.266;7.104;2024-02-26T09:48:51;9.50;99.90
15184;DHT22;7693;49.266;7.104;2024-02-26T09:51:18;9.50;99.90
15184;DHT22;7693;49.266;7.104;2024-02-26T09:53:46;9.50;99.90
15184;DHT22;7693;49.266;7.104;2024-02-26T09:56:14;9.60;99.90
15184;DHT22;7693;49.266;7.104;2024-02-26T09:58:41;9.60;99.90
15184;DHT22;7693;49.266;7.104;2024-02-26T10:01:11;9.70;99.90
15184;DHT22;7693;49.266;7.104;2024-02-26T10:03:40;9.70;99.90
15184;DHT22;7693;49.266;7.104;2024-02-26T10:06:10;9.80;99.90
15184;DHT22;7693;49.266;7.104;2024-02-26T10:08:36;9.90;99.90
15184;DHT22;7693;49.266;7.104;2024-02-26T10:11:05;10.00;99.90
15184;DHT22;7693;49.266;7.104;2024-02-26T10:13:32;10.00;99.90
15184;DHT22;7693;49.266;7.104;2024-02-26T10:15:58;10.00;99.90
15184;DHT22;7693;49.266;7.104;2024-02-26T10:18:24;10.10;99.90
15184;DHT22;7693;49.266;7.104;2024-02-26T10:21:02;10.10;99.90
15184;DHT22;7693;49.266;7.104;2024-02-26T10:23:28;10.10;99.90
15184;DHT22;7693;49.266;7.104;2024-02-26T10:25:54;10.10;99.90
15184;DHT22;7693;49.266;7.104;2024-02-26T10:28:21;10.20;99.90
15184;DHT22;7693;49.266;7.104;2024-02-26T10:30:46;10.20;99.90
15184;DHT22;7693;49.266;7.104;2024-02-26T10:33:12;10.20;99.90
15184;DHT22;7693;49.266;7.104;2024-02-26T10:35:40;10.20;99.90
15184;DHT22;7693;49.266;7.104;2024-02-26T10:38:10;10.30;99.90
15184;DHT22;7693;49.266;7.104;2024-02-26T10:40:36;10.30;99.90
15184;DHT22;7693;49.266;7.104;2024-02-26T10:43:02;10.30;99.90
15184;DHT22;7693;49.266;7.104;2024-02-26T10:45:28;10.40;99.90
15184;DHT22;7693;49.266;7.104;2024-02-26T10:47:54;10.40;99.90
15184;DHT22;7693;49.266;7.104;2024-02-26T10:50:20;10.50;99.90
15184;DHT22;7693;49.266;7.104;2024-02-26T10:52:45;10.60;99.90
15184;DHT22;7693;49.266;7.104;2024-02-26T10:55:16;10.60;99.90
15184;DHT22;7693;49.266;7.104;2024-02-26T10:57:45;10.60;99.90
15184;DHT22;7693;49.266;7.104;2024-02-26T13:34:27;12.00;99.90
15184;DHT22;7693;49.266;7.104;2024-02-26T13:36:54;12.00;99.90
15184;DHT22;7693;49.266;7.104;2024-02-26T13:39:27;12.00;99.90
15184;DHT22;7693;49.266;7.104;2024-02-26T13:41:54;11.90;99.90
15184;DHT22;7693;49.266;7.104;2024-02-26T13:44:20;11.90;99.90
15184;DHT22;7693;49.266;7.104;2024-02-26T13:46:47;11.90;99.90
15184;DHT22;7693;49.266;7.104;2024-02-26T13:49:13;11.90;99.90
15184;DHT22;7693;49.266;7.104;2024-02-26T13:51:39;11.90;99.90
15184;DHT22;7693;49.266;7.104;2024-02-26T13:54:05;11.90;99.90
15184;DHT22;7693;49.266;7.104;2024-02-26T13:56:31;11.90;99.90
15184;DHT22;7693;49.266;7.104;2024-02-26T13:58:57;11.90;99.90
15184;DHT22;7693;49.266;7.104;2024-02-26T14:01:24;11.90;99.90
15184;DHT22;7693;49.266;7.104;2024-02-26T14:03:49;11.90;99.90
15184;DHT22;7693;49.266;7.104;2024-02-26T14:06:15;12.00;99.90
15184;DHT22;7693;49.266;7.104;2024-02-26T14:08:41;12.00;99.90
15184;DHT22;7693;49.266;7.104;2024-02-26T14:11:07;12.00;99.90
15184;DHT22;7693;49.266;7.104;2024-02-26T14:13:32;12.00;99.90
15184;DHT22;7693;49.266;7.104;2024-02-26T14:15:58;12.00;99.90
15184;DHT22;7693;49.266;7.104;2024-02-26T14:18:24;12.00;99.90
15184;DHT22;7693;49.266;7.104;2024-02-26T14:20:50;12.00;99.90
15184;DHT22;7693;49.266;7.104;2024-02-26T14:23:15;12.00;99.90
15184;DHT22;7693;49.266;7.104;2024-02-26T14:25:41;12.00;99.90
15184;DHT22;7693;49.266;7.104;2024-02-26T14:28:07;11.90;99.90
15184;DHT22;7693;49.266;7.104;2024-02-26T14:30:32;12.00;99.90
15184;DHT22;7693;49.266;7.104;2024-02-26T14:32:58;11.90;99.90
15184;DHT22;7693;49.266;7.104;2024-02-26T14:35:24;11.90;99.90
15184;DHT22;7693;49.266;7.104;2024-02-26T14:37:51;11.90;99.90
15184;DHT22;7693;49.266;7.104;2024-02-26T14:40:17;11.90;99.90
15184;DHT22;7693;49.266;7.104;2024-02-26T14:42:44;11.80;99.90
15184;DHT22;7693;49.266;7.104;2024-02-26T14:45:10;11.90;99.90
15184;DHT22;7693;49.266;7.104;2024-02-26T14:47:36;11.80;99.90
15184;DHT22;7693;49.266;7.104;2024-02-26T14:50:02;11.80;99.90
15184;DHT22;7693;49.266;7.104;2024-02-26T14:52:28;11.70;99.90
15184;DHT22;7693;49.266;7.104;2024-02-26T14:54:54;11.70;99.90
15184;DHT22;7693;49.266;7.104;2024-02-26T14:57:20;11.60;99.90
15184;DHT22;7693;49.266;7.104;2024-02-26T14:59:45;11.60;99.90
15184;DHT22;7693;49.266;7.104;2024-02-26T15:02:11;11.60;99.90
15184;DHT22;7693;49.266;7.104;2024-02-26T15:04:37;11.50;99.90
15184;DHT22;7693;49.266;7.104;2024-02-26T15:07:03;11.50;99.90
15184;DHT22;7693;49.266;7.104;2024-02-26T15:09:29;11.50;99.90
15184;DHT22;7693;49.266;7.104;2024-02-26T15:11:54;11.50;99.90
15184;DHT22;7693;49.266;7.104;2024-02-26T15:14:23;11.60;99.90
15184;DHT22;7693;49.266;7.104;2024-02-26T15:16:48;11.60;99.90
15184;DHT22;7693;49.266;7.104;2024-02-26T15:19:14;11.60;99.90
15184;DHT22;7693;49.266;7.104;2024-02-26T15:21:44;11.60;99.90
15184;DHT22;7693;49.266;7.104;2024-02-26T15:24:10;11.60;99.90
15184;DHT22;7693;49.266;7.104;2024-02-26T15:26:37;11.80;99.90
15184;DHT22;7693;49.266;7.104;2024-02-26T15:29:03;12.10;99.90
15184;DHT22;7693;49.266;7.104;2024-02-26T15:31:28;12.50;99.90
15184;DHT22;7693;49.266;7.104;2024-02-26T15:33:54;12.70;99.90
15184;DHT22;7693;49.266;7.104;2024-02-26T15:36:20;12.90;99.90
15184;DHT22;7693;49.266;7.104;2024-02-26T15:38:45;12.90;99.90
15184;DHT22;7693;49.266;7.104;2024-02-26T15:41:12;12.80;99.90
15184;DHT22;7693;49.266;7.104;2024-02-26T15:43:38;12.50;99.90
15184;DHT22;7693;49.266;7.104;2024-02-26T15:46:04;12.30;99.90
15184;DHT22;7693;49.266;7.104;2024-02-26T15:48:31;12.10;99.90
15184;DHT22;7693;49.266;7.104;2024-02-26T15:50:57;12.00;99.90
15184;DHT22;7693;49.266;7.104;2024-02-26T15:53:22;11.80;99.90
15184;DHT22;7693;49.266;7.104;2024-02-26T15:55:48;11.70;99.90
15184;DHT22;7693;49.266;7.104;2024-02-26T15:58:14;11.70;99.90
15184;DHT22;7693;49.266;7.104;2024-02-26T16:00:40;11.60;99.90
15184;DHT22;7693;49.266;7.104;2024-02-26T16:03:07;11.60;99.90
15184;DHT22;7693;49.266;7.104;2024-02-26T16:05:32;11.50;99.90
15184;DHT22;7693;49.266;7.104;2024-02-26T16:08:01;11.50;99.90
15184;DHT22;7693;49.266;7.104;2024-02-26T16:10:29;11.50;99.90
15184;DHT22;7693;49.266;7.104;2024-02-26T16:12:58;11.50;99.90
15184;DHT22;7693;49.266;7.104;2024-02-26T16:15:25;11.50;99.90
15184;DHT22;7693;49.266;7.104;2024-02-26T16:17:52;11.50;99.90
15184;DHT22;7693;49.266;7.104;2024-02-26T16:20:21;11.50;99.90
15184;DHT22;7693;49.266;7.104;2024-02-26T16:22:50;11.50;99.90
15184;DHT22;7693;49.266;7.104;2024-02-26T16:25:19;11.40;99.90
15184;DHT22;7693;49.266;7.104;2024-02-26T16:27:45;11.40;99.90
15184;DHT22;7693;49.266;7.104;2024-02-26T16:30:12;11.30;99.90
15184;DHT22;7693;49.266;7.104;2024-02-26T16:32:39;11.30;99.90
15184;DHT22;7693;49.266;7.104;2024-02-26T16:35:05;11.20;99.90
15184;DHT22;7693;49.266;7.104;2024-02-26T16:37:32;11.10;99.90
15184;DHT22;7693;49.266;7.104;2024-02-26T16:39:59;11.10;99.90
15184;DHT22;7693;49.266;7.104;2024-02-26T16:42:25;11.10;99.90
15184;DHT22;7693;49.266;7.104;2024-02-26T16:44:51;11.10;99.90
15184;DHT22;7693;49.266;7.104;2024-02-26T16:47:17;11.00;99.90
15184;DHT22;7693;49.266;7.104;2024-02-26T16:49:43;10.90;99.90
15184;DHT22;7693;49.266;7.104;2024-02-26T16:52:08;10.90;99.90
15184;DHT22;7693;49.266;7.104;2024-02-26T16:54:34;10.80;99.90
15184;DHT22;7693;49.266;7.104;2024-02-26T16:56:59;10.80;99.90
15184;DHT22;7693;49.266;7.104;2024-02-26T16:59:26;10.70;99.90
15184;DHT22;7693;49.266;7.104;2024-02-26T17:01:54;10.70;99.90
15184;DHT22;7693;49.266;7.104;2024-02-26T17:04:21;10.60;99.90
15184;DHT22;7693;49.266;7.104;2024-02-26T17:06:46;10.60;99.90
15184;DHT22;7693;49.266;7.104;2024-02-26T17:09:12;10.50;99.90
15184;DHT22;7693;49.266;7.104;2024-02-26T17:11:38;10.50;99.90
15184;DHT22;7693;49.266;7.104;2024-02-26T17:14:04;10.50;99.90
15184;DHT22;7693;49.266;7.104;2024-02-26T17:16:30;10.40;99.90
15184;DHT22;7693;49.266;7.104;2024-02-26T17:18:56;10.40;99.90
15184;DHT22;7693;49.266;7.104;2024-02-26T17:21:23;10.40;99.90
15184;DHT22;7693;49.266;7.104;2024-02-26T17:23:48;10.40;99.90
15184;DHT22;7693;49.266;7.104;2024-02-26T17:26:21;10.40;99.90
15184;DHT22;7693;49.266;7.104;2024-02-26T17:28:47;10.30;99.90
15184;DHT22;7693;49.266;7.104;2024-02-26T17:31:14;10.30;99.90
15184;DHT22;7693;49.266;7.104;2024-02-26T17:33:40;10.30;99.90
15184;DHT22;7693;49.266;7.104;2024-02-26T17:36:06;10.30;99.90
15184;DHT22;7693;49.266;7.104;2024-02-26T17:38:34;10.30;99.90
15184;DHT22;7693;49.266;7.104;2024-02-26T17:41:00;10.20;99.90
15184;DHT22;7693;49.266;7.104;2024-02-26T17:43:26;10.20;99.90
15184;DHT22;7693;49.266;7.104;2024-02-26T17:45:52;10.20;99.90
15184;DHT22;7693;49.266;7.104;2024-02-26T17:48:17;10.20;99.90
15184;DHT22;7693;49.266;7.104;2024-02-26T17:50:43;10.10;99.90
15184;DHT22;7693;49.266;7.104;2024-02-26T17:53:09;10.10;99.90
15184;DHT22;7693;49.266;7.104;2024-02-26T17:55:39;10.10;99.90
15184;DHT22;7693;49.266;7.104;2024-02-26T17:58:05;10.00;99.90
15184;DHT22;7693;49.266;7.104;2024-02-26T18:00:31;10.00;99.90
15184;DHT22;7693;49.266;7.104;2024-02-26T18:02:58;10.00;99.90
15184;DHT22;7693;49.266;7.104;2024-02-26T18:05:23;9.90;99.90
15184;DHT22;7693;49.266;7.104;2024-02-26T18:07:50;9.90;99.90
15184;DHT22;7693;49.266;7.104;2024-02-26T18:10:16;9.80;99.90
15184;DHT22;7693;49.266;7.104;2024-02-26T18:12:43;9.80;99.90
15184;DHT22;7693;49.266;7.104;2024-02-26T18:15:09;9.80;99.90
15184;DHT22;7693;49.266;7.104;2024-02-26T18:17:35;9.70;99.90
15184;DHT22;7693;49.266;7.104;2024-02-26T18:20:04;9.70;99.90
15184;DHT22;7693;49.266;7.104;2024-02-26T18:22:32;9.70;99.90
15184;DHT22;7693;49.266;7.104;2024-02-26T18:24:58;9.70;99.90